Time;durP1;ratioP1;P1;durP2;ratioP2;P2;SDS_P1;SDS_P2;PMS_P1;PMS_P2;Temp;Humidity;BMP_temperature;BMP_pressure;BME280_temperature;BME280_humidity;BME280_pressure;Samples;Min_cycle;Max_cycle;Signal;HPM_P1;HPM_P2
2024/02/19 00:00:47;;;;;;;0.30;0.30;;;;;;;8.51;100.00;100153.81;5031684;28;20065;-58
2024/02/19 00:03:14;;;;;;;0.30;0.30;;;;;;;8.50;100.00;100146.84;5028880;28;20037;-59
2024/02/19 00:05:43;;;;;;;0.20;0.20;;;;;;;8.54;100.00;100150.75;5031730;28;20050;-59
2024/02/19 00:08:10;;;;;;;0.40;0.40;;;;;;;8.52;100.00;100144.78;5032763;28;20140;-59
2024/02/19 00:10:37;;;;;;;0.28;0.28;;;;;;;8.52;100.00;100160.81;5035020;28;20064;-59
2024/02/19 00:13:05;;;;;;;0.30;0.30;;;;;;;8.43;100.00;100158.34;5033919;28;20049;-59
2024/02/19 00:15:32;;;;;;;0.30;0.30;;;;;;;8.45;100.00;100154.66;5030866;28;20065;-59
2024/02/19 00:17:59;;;;;;;0.30;0.30;;;;;;;8.43;100.00;100169.03;5039228;28;20123;-59
2024/02/19 00:20:26;;;;;;;0.20;0.20;;;;;;;8.42;100.00;100182.59;5032317;28;20057;-59
2024/02/19 00:22:55;;;;;;;0.30;0.30;;;;;;;8.48;100.00;100180.94;5035777;28;20957;-59
2024/02/19 00:25:22;;;;;;;0.20;0.20;;;;;;;8.53;100.00;100189.97;5023647;28;20053;-59
2024/02/19 00:27:49;;;;;;;0.30;0.30;;;;;;;8.56;100.00;100192.28;5031129;28;20061;-59
2024/02/19 00:30:16;;;;;;;0.30;0.30;;;;;;;8.55;100.00;100192.47;5033053;28;20134;-59
2024/02/19 00:32:43;;;;;;;0.20;0.20;;;;;;;8.49;100.00;100183.44;5039079;28;20930;-59
2024/02/19 00:35:11;;;;;;;0.30;0.30;;;;;;;8.47;100.00;100190.00;5028835;28;20118;-60
2024/02/19 00:37:38;;;;;;;0.30;0.30;;;;;;;8.39;100.00;100199.84;5036233;28;20052;-59
2024/02/19 00:40:08;;;;;;;0.30;0.30;;;;;;;8.43;100.00;100193.06;5032214;28;20045;-59
2024/02/19 00:42:35;;;;;;;0.30;0.30;;;;;;;8.36;100.00;100204.75;5030638;28;20137;-59
2024/02/19 00:45:02;;;;;;;0.35;0.35;;;;;;;8.36;100.00;100202.06;5033738;28;20047;-57
2024/02/19 00:47:29;;;;;;;0.30;0.30;;;;;;;8.36;100.00;100194.91;5031085;28;20159;-57
2024/02/19 00:49:56;;;;;;;0.30;0.30;;;;;;;8.31;100.00;100205.38;5030939;28;20061;-57
2024/02/19 00:52:23;;;;;;;0.30;0.30;;;;;;;8.32;100.00;100207.00;5028313;28;20098;-58
2024/02/19 00:54:50;;;;;;;0.20;0.20;;;;;;;8.29;100.00;100207.44;5032623;28;20512;-57
2024/02/19 00:57:19;;;;;;;0.30;0.30;;;;;;;8.33;100.00;100208.66;5037303;28;20468;-57
2024/02/19 00:59:47;;;;;;;0.30;0.30;;;;;;;8.30;100.00;100209.06;5042396;28;20037;-58
2024/02/19 01:02:14;;;;;;;0.40;0.40;;;;;;;8.24;100.00;100215.22;5043200;28;20043;-57
2024/02/19 01:04:41;;;;;;;0.30;0.30;;;;;;;8.20;100.00;100222.81;5035916;28;20052;-57
2024/02/19 01:07:08;;;;;;;0.30;0.30;;;;;;;8.24;100.00;100212.56;5038767;28;20123;-57
2024/02/19 01:09:35;;;;;;;0.30;0.30;;;;;;;8.26;100.00;100210.47;5044719;28;20052;-62
2024/02/19 01:12:02;;;;;;;0.28;0.28;;;;;;;8.21;100.00;100215.59;5040528;28;20076;-58
2024/02/19 01:14:32;;;;;;;0.20;0.20;;;;;;;8.16;100.00;100210.91;5041098;28;20102;-57
2024/02/19 01:16:59;;;;;;;0.20;0.20;;;;;;;8.03;100.00;100215.38;5037091;28;20049;-57
2024/02/19 01:19:27;;;;;;;0.20;0.20;;;;;;;7.99;100.00;100213.13;5046393;28;20127;-58
2024/02/19 01:21:54;;;;;;;0.30;0.30;;;;;;;8.03;100.00;100221.53;5030698;28;20155;-57
2024/02/19 01:24:21;;;;;;;0.30;0.30;;;;;;;8.03;100.00;100215.38;5042224;28;20095;-57
2024/02/19 01:26:48;;;;;;;0.30;0.30;;;;;;;7.98;100.00;100216.78;5035344;28;20569;-58
2024/02/19 01:29:16;;;;;;;0.30;0.30;;;;;;;8.03;100.00;100226.88;5041346;28;20049;-57
2024/02/19 01:31:45;;;;;;;0.30;0.30;;;;;;;7.98;100.00;100224.78;5021890;28;20419;-57
2024/02/19 01:34:14;;;;;;;0.30;0.30;;;;;;;7.89;100.00;100247.38;5036037;28;20045;-60
2024/02/19 01:36:41;;;;;;;0.20;0.20;;;;;;;7.86;100.00;100242.44;5031643;28;20045;-58
2024/02/19 01:39:08;;;;;;;0.30;0.30;;;;;;;7.96;100.00;100247.38;5038264;28;20047;-58
2024/02/19 01:41:36;;;;;;;0.30;0.30;;;;;;;7.93;100.00;100251.28;5034678;28;20044;-58
2024/02/19 01:44:04;;;;;;;0.30;0.30;;;;;;;7.95;100.00;100254.56;5035972;28;20041;-58
2024/02/19 01:46:31;;;;;;;0.30;0.30;;;;;;;7.80;100.00;100251.22;5044006;28;20129;-58
2024/02/19 01:49:00;;;;;;;0.30;0.30;;;;;;;7.78;100.00;100251.41;5035905;28;20059;-58
2024/02/19 01:51:27;;;;;;;0.20;0.20;;;;;;;7.78;100.00;100253.28;5034470;28;20053;-57
2024/02/19 01:53:54;;;;;;;0.30;0.30;;;;;;;7.79;100.00;100246.94;5031818;28;20077;-58
2024/02/19 01:56:22;;;;;;;0.30;0.30;;;;;;;7.73;100.00;100258.38;5038170;28;20044;-58
2024/02/19 01:58:49;;;;;;;0.30;0.30;;;;;;;7.75;100.00;100256.34;5032652;28;20107;-58
2024/02/19 02:01:16;;;;;;;0.28;0.28;;;;;;;7.84;100.00;100263.16;5044348;28;20064;-57
2024/02/19 02:03:44;;;;;;;0.30;0.30;;;;;;;7.86;100.00;100262.94;5039423;28;20037;-57
2024/02/19 02:06:12;;;;;;;0.20;0.20;;;;;;;7.83;100.00;100263.34;5033182;28;20044;-57
2024/02/19 02:08:40;;;;;;;0.20;0.20;;;;;;;7.85;100.00;100258.66;5028770;28;20049;-58
2024/02/19 02:11:07;;;;;;;0.32;0.32;;;;;;;7.87;100.00;100265.44;5034370;28;20528;-57
2024/02/19 02:13:37;;;;;;;0.40;0.40;;;;;;;7.86;100.00;100268.28;5041864;28;20049;-57
2024/02/19 02:16:04;;;;;;;0.30;0.30;;;;;;;7.72;100.00;100262.09;5029926;28;20042;-57
2024/02/19 02:18:31;;;;;;;0.30;0.30;;;;;;;7.70;100.00;100264.94;5033634;28;20124;-58
2024/02/19 02:20:59;;;;;;;0.22;0.22;;;;;;;7.68;100.00;100271.50;5035937;28;20044;-58
2024/02/19 02:23:27;;;;;;;0.30;0.30;;;;;;;7.64;100.00;100262.22;5026072;28;20049;-57
2024/02/19 02:25:54;;;;;;;0.20;0.20;;;;;;;7.51;100.00;100274.50;5036944;28;20041;-58
2024/02/19 02:28:23;;;;;;;0.20;0.20;;;;;;;7.53;100.00;100269.78;5036924;28;20041;-58
2024/02/19 02:30:50;;;;;;;0.30;0.30;;;;;;;7.54;100.00;100276.78;5053824;28;20056;-58
2024/02/19 02:33:17;;;;;;;0.30;0.30;;;;;;;7.54;100.00;100282.13;5039003;28;20067;-58
2024/02/19 02:35:45;;;;;;;0.30;0.30;;;;;;;7.52;100.00;100275.31;5028986;28;20136;-58
2024/02/19 02:38:14;;;;;;;0.30;0.30;;;;;;;7.51;100.00;100277.19;5038023;28;20136;-58
2024/02/19 02:40:41;;;;;;;0.30;0.30;;;;;;;7.48;100.00;100277.53;5037819;28;20126;-58
2024/02/19 02:43:08;;;;;;;0.30;0.30;;;;;;;7.46;100.00;100281.44;5033631;28;20537;-58
2024/02/19 02:45:36;;;;;;;0.30;0.30;;;;;;;7.46;100.00;100284.09;5029977;28;20234;-58
2024/02/19 02:48:03;;;;;;;0.40;0.40;;;;;;;7.40;100.00;100285.72;5036549;28;20053;-58
2024/02/19 02:50:30;;;;;;;0.30;0.30;;;;;;;7.46;100.00;100282.28;5033569;28;20376;-59
2024/02/19 02:52:57;;;;;;;0.30;0.30;;;;;;;7.45;100.00;100287.81;5037266;28;20045;-58
2024/02/19 02:55:24;;;;;;;0.40;0.40;;;;;;;7.46;100.00;100292.94;5036610;28;20060;-58
2024/02/19 02:57:51;;;;;;;0.30;0.30;;;;;;;7.53;100.00;100283.13;5034619;28;20128;-58
2024/02/19 03:00:20;;;;;;;0.30;0.30;;;;;;;7.58;100.00;100298.53;5039307;28;20125;-58
2024/02/19 03:02:51;;;;;;;0.30;0.30;;;;;;;7.56;100.00;100296.09;5026503;28;20048;-59
2024/02/19 03:05:18;;;;;;;0.22;0.22;;;;;;;7.53;100.00;100301.78;5031278;28;20052;-58
2024/02/19 03:07:45;;;;;;;0.30;0.30;;;;;;;7.61;100.00;100297.31;5033059;28;20438;-58
2024/02/19 03:10:12;;;;;;;0.30;0.30;;;;;;;7.60;100.00;100306.34;5036654;28;20057;-58
2024/02/19 03:12:39;;;;;;;0.20;0.20;;;;;;;7.62;100.00;100312.31;5029499;28;20152;-58
2024/02/19 03:15:07;;;;;;;0.28;0.28;;;;;;;7.60;100.00;100303.69;5034597;28;20057;-58
2024/02/19 03:17:34;;;;;;;0.30;0.30;;;;;;;7.68;100.00;100314.19;5035172;28;20055;-58
2024/02/19 03:20:11;;;;;;;0.30;0.30;;;;;;;7.67;100.00;100308.03;5035460;28;20051;-58
2024/02/19 03:22:38;;;;;;;0.30;0.30;;;;;;;7.64;100.00;100312.94;5032463;28;20041;-58
2024/02/19 03:25:06;;;;;;;0.30;0.30;;;;;;;7.62;100.00;100315.81;5031830;28;20503;-57
2024/02/19 03:27:33;;;;;;;0.30;0.30;;;;;;;7.63;100.00;100316.63;5031985;28;20049;-58
2024/02/19 03:30:01;;;;;;;0.30;0.30;;;;;;;7.54;100.00;100314.13;5030938;28;20047;-58
2024/02/19 03:32:28;;;;;;;0.30;0.30;;;;;;;7.53;100.00;100323.13;5033912;28;20044;-58
2024/02/19 03:34:56;;;;;;;0.30;0.30;;;;;;;7.53;100.00;100325.81;5027802;28;20132;-59
2024/02/19 03:37:25;;;;;;;0.38;0.38;;;;;;;7.56;100.00;100330.78;5033372;28;20041;-58
2024/02/19 03:39:52;;;;;;;0.30;0.30;;;;;;;7.56;100.00;100328.09;5038085;28;20045;-58
2024/02/19 03:42:19;;;;;;;0.30;0.30;;;;;;;7.52;100.00;100329.50;5031882;28;20685;-58
2024/02/19 03:44:46;;;;;;;0.30;0.30;;;;;;;7.54;100.00;100329.31;5030958;28;20041;-58
2024/02/19 03:47:13;;;;;;;0.20;0.20;;;;;;;7.58;100.00;100330.56;5038011;28;20511;-58
2024/02/19 03:49:40;;;;;;;0.30;0.30;;;;;;;7.53;100.00;100331.13;5035484;28;20053;-58
2024/02/19 03:52:07;;;;;;;0.40;0.40;;;;;;;7.55;100.00;100336.28;5032018;28;20051;-58
2024/02/19 03:54:36;;;;;;;0.30;0.30;;;;;;;7.55;100.00;100329.09;5031639;28;20518;-58
2024/02/19 03:57:04;;;;;;;0.38;0.38;;;;;;;7.51;100.00;100341.19;5029143;28;20059;-58
2024/02/19 03:59:32;;;;;;;0.30;0.30;;;;;;;7.52;100.00;100337.50;5034735;28;20471;-58
2024/02/19 04:01:59;;;;;;;0.30;0.30;;;;;;;7.60;100.00;100343.72;5033256;28;20045;-59
2024/02/19 04:04:26;;;;;;;0.30;0.30;;;;;;;7.67;100.00;100344.56;5042246;28;20301;-58
2024/02/19 04:06:53;;;;;;;0.30;0.30;;;;;;;7.61;100.00;100345.34;5026009;28;20073;-58
2024/02/19 04:09:21;;;;;;;0.30;0.30;;;;;;;7.52;100.00;100353.50;5030205;28;20052;-58
2024/02/19 04:11:49;;;;;;;0.40;0.40;;;;;;;7.58;100.00;100359.91;5030652;28;20052;-58
2024/02/19 04:14:16;;;;;;;0.30;0.30;;;;;;;7.45;100.00;100357.16;5034925;28;20105;-58
2024/02/19 04:16:43;;;;;;;0.40;0.40;;;;;;;7.46;100.00;100364.97;5033791;28;20137;-58
2024/02/19 04:19:10;;;;;;;0.30;0.30;;;;;;;7.35;100.00;100360.16;5030975;28;20050;-58
2024/02/19 04:21:43;;;;;;;0.30;0.30;;;;;;;7.37;100.00;100366.13;5034395;28;20072;-58
2024/02/19 04:24:12;;;;;;;0.38;0.38;;;;;;;7.42;100.00;100373.56;5018049;28;20494;-58
2024/02/19 04:26:39;;;;;;;0.40;0.40;;;;;;;7.46;100.00;100372.13;5024835;28;20073;-58
2024/02/19 04:29:08;;;;;;;0.32;0.32;;;;;;;7.37;100.00;100375.97;5030770;28;20052;-58
2024/02/19 04:31:35;;;;;;;0.30;0.30;;;;;;;7.45;100.00;100381.97;5037610;28;20049;-58
2024/02/19 04:34:02;;;;;;;0.40;0.40;;;;;;;7.45;100.00;100379.31;5029124;28;20891;-58
2024/02/19 04:36:29;;;;;;;0.30;0.30;;;;;;;7.38;100.00;100378.44;5030061;28;20478;-58
2024/02/19 04:38:56;;;;;;;0.20;0.20;;;;;;;7.46;100.00;100375.66;5034722;28;20049;-58
2024/02/19 04:41:23;;;;;;;0.30;0.30;;;;;;;7.44;100.00;100385.69;5025714;28;20140;-58
2024/02/19 04:43:50;;;;;;;0.40;0.40;;;;;;;7.39;100.00;100395.25;5028632;28;20049;-58
2024/02/19 04:46:18;;;;;;;0.28;0.28;;;;;;;7.40;100.00;100403.06;5030477;28;20033;-58
2024/02/19 04:48:45;;;;;;;0.20;0.20;;;;;;;7.42;100.00;100392.22;5033839;28;20460;-58
2024/02/19 04:51:12;;;;;;;0.40;0.40;;;;;;;7.37;100.00;100398.13;5023955;28;20132;-58
2024/02/19 04:53:39;;;;;;;0.45;0.45;;;;;;;7.31;100.00;100402.41;5027478;28;20562;-58
2024/02/19 04:56:07;;;;;;;0.30;0.30;;;;;;;7.39;100.00;100405.91;5027827;28;20148;-58
2024/02/19 04:58:34;;;;;;;0.30;0.30;;;;;;;7.37;100.00;100406.13;5040547;28;20118;-58
2024/02/19 05:01:01;;;;;;;0.32;0.32;;;;;;;7.32;100.00;100416.56;5026719;28;20053;-58
2024/02/19 05:03:30;;;;;;;0.40;0.40;;;;;;;7.21;100.00;100417.06;5033869;28;20131;-58
2024/02/19 05:05:57;;;;;;;0.30;0.30;;;;;;;7.15;100.00;100415.16;5031382;28;20077;-61
2024/02/19 05:08:24;;;;;;;0.30;0.30;;;;;;;7.08;100.00;100405.25;5038784;28;20850;-58
2024/02/19 05:10:51;;;;;;;0.28;0.28;;;;;;;7.16;100.00;100412.28;5037597;28;20045;-58
2024/02/19 05:13:18;;;;;;;0.30;0.30;;;;;;;7.11;100.00;100412.88;5035455;28;20052;-58
2024/02/19 05:15:45;;;;;;;0.30;0.30;;;;;;;7.02;100.00;100410.53;5035659;28;20140;-58
2024/02/19 05:18:12;;;;;;;0.30;0.30;;;;;;;6.99;100.00;100403.75;5039181;28;20045;-58
2024/02/19 05:20:41;;;;;;;0.30;0.30;;;;;;;6.95;100.00;100415.78;5034910;28;20048;-58
2024/02/19 05:23:08;;;;;;;0.40;0.40;;;;;;;6.93;100.00;100412.50;5035274;28;20033;-58
2024/02/19 05:25:35;;;;;;;0.30;0.30;;;;;;;6.97;100.00;100405.78;5027183;28;20403;-58
2024/02/19 05:28:02;;;;;;;0.40;0.40;;;;;;;6.98;100.00;100409.25;5029858;28;20047;-58
2024/02/19 05:30:30;;;;;;;0.40;0.40;;;;;;;6.91;100.00;100403.84;5032018;28;20072;-58
2024/02/19 05:32:57;;;;;;;0.30;0.30;;;;;;;6.83;100.00;100406.66;5032605;28;20048;-58
2024/02/19 05:35:24;;;;;;;0.40;0.40;;;;;;;6.82;100.00;100411.16;5030482;28;20090;-58
2024/02/19 05:37:53;;;;;;;0.30;0.30;;;;;;;6.78;100.00;100403.72;5036036;28;20049;-58
2024/02/19 05:40:20;;;;;;;0.30;0.30;;;;;;;6.80;100.00;100405.19;5028539;28;20144;-58
2024/02/19 05:42:49;;;;;;;0.40;0.40;;;;;;;6.87;100.00;100403.41;5032692;28;20044;-58
2024/02/19 05:45:16;;;;;;;0.22;0.22;;;;;;;6.93;100.00;100407.16;5032688;28;20052;-58
2024/02/19 05:47:43;;;;;;;0.30;0.30;;;;;;;6.89;100.00;100412.06;5033067;28;20061;-58
2024/02/19 05:50:10;;;;;;;0.30;0.30;;;;;;;6.87;100.00;100407.94;5034249;28;20120;-58
2024/02/19 05:52:37;;;;;;;0.40;0.40;;;;;;;6.96;100.00;100416.63;5037007;28;20073;-58
2024/02/19 05:55:09;;;;;;;0.43;0.43;;;;;;;6.90;100.00;100402.22;5038467;28;20112;-58
2024/02/19 05:57:36;;;;;;;0.40;0.40;;;;;;;6.81;100.00;100398.00;5038237;28;20064;-58
2024/02/19 06:00:05;;;;;;;0.35;0.35;;;;;;;6.83;100.00;100393.31;5035759;28;20049;-59
2024/02/19 06:02:34;;;;;;;0.38;0.38;;;;;;;6.87;100.00;100397.28;5039866;28;20144;-58
2024/02/19 06:05:01;;;;;;;0.40;0.40;;;;;;;6.89;100.00;100405.91;5033307;28;20141;-59
2024/02/19 06:07:28;;;;;;;0.32;0.32;;;;;;;6.97;100.00;100397.78;5033901;28;20902;-58
2024/02/19 06:09:55;;;;;;;0.40;0.40;;;;;;;6.95;100.00;100398.97;5034984;28;20037;-58
2024/02/19 06:12:24;;;;;;;0.30;0.30;;;;;;;6.94;100.00;100395.50;5040862;28;20052;-57
2024/02/19 06:14:51;;;;;;;0.35;0.35;;;;;;;6.93;100.00;100387.69;5032744;28;20826;-58
2024/02/19 06:17:18;;;;;;;0.30;0.30;;;;;;;6.90;100.00;100399.53;5033887;28;20572;-58
2024/02/19 06:19:45;;;;;;;0.30;0.30;;;;;;;6.91;100.00;100387.84;5033105;28;20053;-58
2024/02/19 06:22:14;;;;;;;0.40;0.40;;;;;;;6.87;100.00;100399.94;5024811;28;20541;-58
2024/02/19 06:24:44;;;;;;;0.30;0.30;;;;;;;6.90;100.00;100399.53;5024620;28;20041;-58
2024/02/19 06:27:12;;;;;;;0.47;0.47;;;;;;;6.95;100.00;100396.31;5038738;28;20071;-57
2024/02/19 06:29:40;;;;;;;0.25;0.25;;;;;;;6.88;100.00;100399.72;5039506;28;20044;-57
2024/02/19 06:32:07;;;;;;;0.30;0.30;;;;;;;6.90;100.00;100408.38;5031125;28;20041;-58
2024/02/19 06:34:35;;;;;;;0.30;0.30;;;;;;;6.95;100.00;100410.47;5033563;28;20053;-59
2024/02/19 06:37:02;;;;;;;0.20;0.20;;;;;;;6.91;100.00;100415.38;5035208;28;20041;-59
2024/02/19 06:39:29;;;;;;;0.30;0.30;;;;;;;6.93;100.00;100422.31;5025671;28;20055;-59
2024/02/19 06:41:56;;;;;;;0.30;0.30;;;;;;;6.90;100.00;100427.00;5036811;28;20044;-59
2024/02/19 06:44:23;;;;;;;0.40;0.40;;;;;;;7.00;100.00;100425.88;5031974;28;20132;-60
2024/02/19 06:46:52;;;;;;;0.40;0.40;;;;;;;7.00;100.00;100437.38;5028531;28;20841;-59
2024/02/19 06:49:22;;;;;;;0.30;0.30;;;;;;;7.03;100.00;100433.50;5039498;28;20041;-60
2024/02/19 06:51:49;;;;;;;0.38;0.38;;;;;;;7.00;100.00;100436.56;5034891;28;20563;-58
2024/02/19 06:54:16;;;;;;;0.40;0.40;;;;;;;7.00;100.00;100434.72;5037502;28;20045;-58
2024/02/19 06:56:43;;;;;;;0.30;0.30;;;;;;;7.05;100.00;100442.97;5035357;28;20076;-58
2024/02/19 06:59:10;;;;;;;0.38;0.38;;;;;;;7.11;100.00;100444.88;5033436;28;20056;-57
2024/02/19 07:01:38;;;;;;;0.30;0.30;;;;;;;7.06;100.00;100443.78;5037980;28;20045;-58
2024/02/19 07:04:07;;;;;;;0.30;0.30;;;;;;;7.12;100.00;100437.69;5032565;28;20053;-58
2024/02/19 07:06:34;;;;;;;0.28;0.28;;;;;;;7.07;100.00;100443.59;5033314;28;20143;-58
2024/02/19 07:09:01;;;;;;;0.50;0.50;;;;;;;7.12;100.00;100443.84;5032289;28;20045;-59
2024/02/19 07:11:28;;;;;;;0.30;0.30;;;;;;;7.11;100.00;100447.56;5036941;28;20399;-58
2024/02/19 07:13:55;;;;;;;0.40;0.40;;;;;;;7.21;100.00;100441.06;5040382;28;20060;-58
2024/02/19 07:16:22;;;;;;;0.40;0.40;;;;;;;7.18;100.00;100447.59;5034417;28;20142;-58
2024/02/19 07:18:49;;;;;;;0.30;0.30;;;;;;;7.24;100.00;100443.34;5035116;28;20136;-59
2024/02/19 07:21:18;;;;;;;0.40;0.40;;;;;;;7.30;100.00;100450.59;5034876;28;20041;-58
2024/02/19 07:23:45;;;;;;;0.35;0.35;;;;;;;7.31;100.00;100453.06;5035031;28;20045;-58
2024/02/19 07:26:12;;;;;;;0.30;0.30;;;;;;;7.38;100.00;100455.78;5037214;28;20124;-59
2024/02/19 07:28:40;;;;;;;0.30;0.30;;;;;;;7.29;100.00;100451.63;5034035;28;20149;-60
2024/02/19 07:31:07;;;;;;;0.40;0.40;;;;;;;7.25;100.00;100469.00;5034866;28;20045;-59
2024/02/19 07:33:34;;;;;;;0.20;0.20;;;;;;;7.33;100.00;100472.34;5029862;28;20136;-59
2024/02/19 07:36:01;;;;;;;0.40;0.40;;;;;;;7.31;100.00;100473.56;5036537;28;20492;-61
2024/02/19 07:38:29;;;;;;;0.30;0.30;;;;;;;7.48;100.00;100469.63;5034078;28;20136;-58
2024/02/19 07:40:56;;;;;;;0.30;0.30;;;;;;;7.36;100.00;100473.81;5033607;28;20391;-58
2024/02/19 07:43:24;;;;;;;0.30;0.30;;;;;;;7.42;100.00;100465.06;5030731;28;20175;-58
2024/02/19 07:45:51;;;;;;;0.32;0.32;;;;;;;7.57;100.00;100462.31;5035242;28;20376;-58
2024/02/19 07:48:18;;;;;;;0.40;0.40;;;;;;;7.60;100.00;100467.25;5033772;28;20149;-58
2024/02/19 07:50:45;;;;;;;0.30;0.30;;;;;;;7.58;100.00;100463.97;5034941;28;20098;-62
2024/02/19 07:53:12;;;;;;;0.40;0.40;;;;;;;7.72;100.00;100459.56;5035380;28;20136;-59
2024/02/19 07:55:40;;;;;;;0.38;0.38;;;;;;;7.70;100.00;100462.41;5039815;28;20559;-58
2024/02/19 07:58:08;;;;;;;0.30;0.30;;;;;;;7.70;100.00;100461.59;5035284;28;20044;-59
2024/02/19 08:00:35;;;;;;;0.30;0.30;;;;;;;7.70;100.00;100458.94;5033691;28;20048;-59
2024/02/19 08:03:02;;;;;;;0.32;0.32;;;;;;;7.67;100.00;100460.13;5036544;28;20041;-59
2024/02/19 08:05:29;;;;;;;0.30;0.30;;;;;;;7.70;100.00;100467.75;5039084;28;20131;-60
2024/02/19 08:07:56;;;;;;;0.30;0.30;;;;;;;7.78;100.00;100472.13;5032812;28;20056;-59
2024/02/19 08:10:24;;;;;;;0.30;0.30;;;;;;;7.81;100.00;100471.72;5034256;28;20045;-60
2024/02/19 08:12:53;;;;;;;0.30;0.30;;;;;;;7.90;100.00;100480.44;5029792;28;20490;-59
2024/02/19 08:15:20;;;;;;;0.40;0.40;;;;;;;7.91;100.00;100480.25;5033996;28;20111;-59
2024/02/19 08:17:47;;;;;;;0.30;0.30;;;;;;;7.94;100.00;100474.50;5036027;28;20414;-60
2024/02/19 08:20:14;;;;;;;0.30;0.30;;;;;;;7.80;100.00;100472.75;5041202;28;20483;-58
2024/02/19 08:22:42;;;;;;;0.30;0.30;;;;;;;7.79;100.00;100476.47;5033721;28;20381;-58
2024/02/19 08:25:09;;;;;;;0.28;0.28;;;;;;;7.89;100.00;100476.13;5042663;28;20041;-59
2024/02/19 08:27:37;;;;;;;0.30;0.30;;;;;;;7.95;100.00;100476.16;5039064;28;20048;-58
2024/02/19 08:30:08;;;;;;;0.30;0.30;;;;;;;8.00;100.00;100486.25;5025005;28;20075;-58
2024/02/19 08:32:35;;;;;;;0.40;0.40;;;;;;;8.04;100.00;100482.19;5035614;28;20167;-58
2024/02/19 08:35:02;;;;;;;0.30;0.30;;;;;;;7.94;100.00;100498.53;5026131;28;20124;-58
2024/02/19 08:37:29;;;;;;;0.40;0.40;;;;;;;7.99;100.00;100489.94;5031986;28;20586;-58
2024/02/19 08:39:56;;;;;;;0.30;0.30;;;;;;;7.99;100.00;100498.78;5032401;28;20099;-59
2024/02/19 08:42:23;;;;;;;0.40;0.40;;;;;;;7.89;100.00;100498.28;5031703;28;20337;-58
2024/02/19 08:44:50;;;;;;;0.30;0.30;;;;;;;7.95;100.00;100494.84;5034654;28;20053;-58
2024/02/19 08:47:19;;;;;;;0.20;0.20;;;;;;;7.96;100.00;100499.19;5038137;28;20118;-58
2024/02/19 08:49:47;;;;;;;0.38;0.38;;;;;;;8.00;100.00;100495.09;5029975;28;20041;-58
2024/02/19 08:52:14;;;;;;;0.30;0.30;;;;;;;8.08;100.00;100493.28;5029876;28;20140;-58
2024/02/19 08:54:41;;;;;;;0.30;0.30;;;;;;;7.99;100.00;100489.94;5029529;28;20045;-58
2024/02/19 08:57:08;;;;;;;0.32;0.32;;;;;;;8.13;100.00;100489.00;5030506;28;20041;-58
2024/02/19 08:59:37;;;;;;;0.35;0.35;;;;;;;8.13;100.00;100498.88;5035840;28;20068;-58
2024/02/19 09:02:04;;;;;;;0.28;0.28;;;;;;;8.20;100.00;100495.22;5037427;28;20499;-58
2024/02/19 09:04:33;;;;;;;0.40;0.40;;;;;;;8.30;100.00;100494.03;5034089;28;20120;-58
2024/02/19 09:07:00;;;;;;;0.30;0.30;;;;;;;8.47;100.00;100481.22;5033416;28;20114;-58
2024/02/19 09:09:27;;;;;;;0.30;0.30;;;;;;;8.48;100.00;100481.00;5032014;28;20494;-58
2024/02/19 09:11:54;;;;;;;0.30;0.30;;;;;;;8.53;100.00;100477.75;5029909;28;20459;-58
2024/02/19 09:14:26;;;;;;;0.30;0.30;;;;;;;8.66;100.00;100485.00;5032042;28;20042;-58
2024/02/19 09:16:55;;;;;;;0.30;0.30;;;;;;;8.93;100.00;100493.94;5042622;28;20040;-58
2024/02/19 09:19:22;;;;;;;0.40;0.40;;;;;;;8.72;100.00;100487.72;5031139;28;20484;-58
2024/02/19 09:21:51;;;;;;;0.22;0.22;;;;;;;9.01;100.00;100478.56;5034109;28;20482;-58
2024/02/19 09:24:18;;;;;;;0.25;0.25;;;;;;;9.01;100.00;100475.03;5033878;28;20053;-58
2024/02/19 09:26:45;;;;;;;0.30;0.30;;;;;;;8.73;100.00;100478.66;5033531;28;20053;-58
2024/02/19 09:29:12;;;;;;;0.30;0.30;;;;;;;8.96;100.00;100475.66;5031316;28;20689;-58
2024/02/19 09:31:39;;;;;;;0.30;0.30;;;;;;;9.11;100.00;100477.34;5018176;28;20049;-58
2024/02/19 09:34:06;;;;;;;0.30;0.30;;;;;;;9.14;100.00;100475.09;5042972;28;20133;-58
2024/02/19 09:36:33;;;;;;;0.30;0.30;;;;;;;9.28;100.00;100479.44;5043840;28;20049;-58
2024/02/19 09:39:02;;;;;;;0.30;0.30;;;;;;;9.32;100.00;100487.88;5031679;28;20045;-58
2024/02/19 09:41:29;;;;;;;0.22;0.22;;;;;;;9.24;100.00;100491.56;5038656;28;20049;-58
2024/02/19 09:43:56;;;;;;;0.25;0.25;;;;;;;9.18;100.00;100481.66;5034018;28;20670;-58
2024/02/19 09:46:24;;;;;;;0.40;0.40;;;;;;;9.25;100.00;100481.69;5031168;28;20492;-58
2024/02/19 09:48:51;;;;;;;0.30;0.30;;;;;;;9.21;100.00;100485.78;5034594;28;20045;-58
2024/02/19 09:51:20;;;;;;;0.30;0.30;;;;;;;9.07;100.00;100484.94;5037886;28;20040;-58
2024/02/19 09:53:49;;;;;;;0.20;0.20;;;;;;;9.41;100.00;100480.47;5034578;28;20092;-58
2024/02/19 09:56:19;;;;;;;0.20;0.20;;;;;;;9.43;100.00;100473.06;5030362;28;20399;-58
2024/02/19 09:58:47;;;;;;;0.35;0.35;;;;;;;9.47;100.00;100477.81;5041093;28;20449;-58
2024/02/19 10:01:14;;;;;;;0.28;0.28;;;;;;;9.66;100.00;100473.50;5034244;28;20052;-58
2024/02/19 10:03:41;;;;;;;0.30;0.30;;;;;;;9.70;100.00;100469.38;5034658;28;20057;-58
2024/02/19 10:06:08;;;;;;;0.30;0.30;;;;;;;10.05;100.00;100471.00;5034733;28;20678;-58
2024/02/19 10:08:35;;;;;;;0.20;0.20;;;;;;;10.42;100.00;100466.81;5031684;28;20564;-58
2024/02/19 10:11:08;;;;;;;0.30;0.30;;;;;;;10.39;100.00;100479.84;5031327;28;20601;-58
2024/02/19 10:13:39;;;;;;;0.20;0.20;;;;;;;10.39;100.00;100467.25;5048015;28;20050;-58
2024/02/19 10:16:07;;;;;;;0.10;0.10;;;;;;;10.56;100.00;100464.94;5029163;28;20044;-58
2024/02/19 10:18:34;;;;;;;0.20;0.20;;;;;;;10.40;100.00;100462.69;5035568;28;20151;-58
2024/02/19 10:21:01;;;;;;;0.20;0.20;;;;;;;10.28;100.00;100459.84;5032633;28;20384;-58
2024/02/19 10:23:28;;;;;;;0.20;0.20;;;;;;;10.82;99.56;100455.94;5039708;28;20136;-58
2024/02/19 10:25:55;;;;;;;0.20;0.20;;;;;;;10.95;97.28;100450.50;5030446;28;20045;-58
2024/02/19 10:28:24;;;;;;;0.20;0.20;;;;;;;11.12;95.95;100452.69;5032904;28;20570;-58
2024/02/19 10:30:53;;;;;;;0.20;0.20;;;;;;;11.16;93.38;100451.22;5038081;28;20087;-58
2024/02/19 10:33:21;;;;;;;0.20;0.20;;;;;;;11.34;92.17;100443.22;5032977;28;20156;-58
2024/02/19 10:35:48;;;;;;;0.20;0.20;;;;;;;11.48;91.52;100453.88;5038922;28;20114;-58
2024/02/19 10:38:16;;;;;;;0.30;0.30;;;;;;;11.15;92.76;100454.91;5035695;28;20049;-58
2024/02/19 10:40:43;;;;;;;0.10;0.10;;;;;;;10.89;94.80;100451.38;5035952;28;20044;-58
2024/02/19 10:43:10;;;;;;;0.20;0.20;;;;;;;10.80;95.50;100458.00;5029728;28;20132;-59
2024/02/19 10:45:38;;;;;;;0.20;0.20;;;;;;;10.94;93.81;100442.69;5028254;28;20436;-58
2024/02/19 10:48:07;;;;;;;0.20;0.20;;;;;;;10.92;93.69;100439.38;5030839;28;20488;-58
2024/02/19 10:50:34;;;;;;;0.20;0.20;;;;;;;11.09;93.57;100434.34;5036632;28;20073;-59
2024/02/19 10:53:01;;;;;;;0.20;0.20;;;;;;;11.48;92.11;100429.69;5032639;28;20053;-58
2024/02/19 10:55:28;;;;;;;0.30;0.30;;;;;;;11.83;90.26;100441.59;5032920;28;20709;-59
2024/02/19 10:57:56;;;;;;;0.30;0.30;;;;;;;12.01;88.38;100442.69;5040645;28;20696;-58
2024/02/19 11:00:25;;;;;;;0.20;0.20;;;;;;;12.13;87.59;100443.63;5030347;28;20128;-58
2024/02/19 11:03:02;;;;;;;0.20;0.20;;;;;;;12.14;87.20;100436.38;5038448;28;20095;-57
2024/02/19 11:05:34;;;;;;;0.20;0.20;;;;;;;12.02;87.10;100436.28;5034121;28;20155;-59
2024/02/19 11:08:01;;;;;;;0.10;0.10;;;;;;;11.84;86.81;100443.22;5030974;28;20042;-58
2024/02/19 11:10:39;;;;;;;0.20;0.20;;;;;;;11.55;89.11;100443.91;5034725;28;20064;-58
2024/02/19 11:13:07;;;;;;;0.15;0.15;;;;;;;11.32;88.52;100450.69;5030796;28;20061;-58
2024/02/19 11:15:35;;;;;;;0.10;0.10;;;;;;;11.52;88.42;100441.66;5035281;28;20426;-58
2024/02/19 11:18:10;;;;;;;0.20;0.20;;;;;;;11.54;88.06;100436.91;5025781;28;20136;-58
2024/02/19 11:20:38;;;;;;;0.20;0.20;;;;;;;11.44;87.88;100453.50;5035828;28;21022;-58
2024/02/19 11:23:05;;;;;;;0.20;0.20;;;;;;;11.35;89.52;100452.91;5027840;28;20404;-59
2024/02/19 11:25:33;;;;;;;0.20;0.20;;;;;;;11.26;89.39;100445.34;5038533;28;20055;-58